This is the latest recevied weather packets stored in our database for station/object W5HKR. If no packets are shown the sender has not sent any weather packets the latest 10 day(s).
| Time | Temp. | Humidity | Pressure | Rain* | Wind** | Luminosity | Snow |
|---|---|---|---|---|---|---|---|
| 1777616302 | 17.78° C | 96% | 983 hPa | 12.19 mm | - | - | - |
| 1777616193 | 18.33° C | 91% | 990.6 hPa | 12.19 mm | - | - | - |
| 1777616000 | 18.33° C | 91% | 990.6 hPa | 11.94 mm | - | - | - |
| 1777615401 | 18.33° C | 91% | 990.6 hPa | 11.18 mm | - | - | - |
| 1777615100 | 18.33° C | 91% | 990.6 hPa | 10.67 mm | - | - | - |
| 1777614802 | 18.33° C | 94% | 984.8 hPa | 7.11 mm | - | - | - |
| 1777614501 | 18.33° C | 91% | 990.6 hPa | 2.54 mm | - | - | - |
| 1777614202 | 18.33° C | 91% | 990.6 hPa | 0.76 mm | - | - | - |
| 1777614032 | 18.89° C | 90% | 985.3 hPa | 0.51 mm | - | - | - |
| 1777613901 | 18.33° C | 91% | 990.6 hPa | 0.51 mm | - | - | - |
| 1777613600 | 19.44° C | 87% | 982.7 hPa | 0 mm | - | - | - |
| 1777613301 | 19.44° C | 86% | 983.1 hPa | 0 mm | - | - | - |
| 1777613002 | 18.33° C | 91% | 990.6 hPa | 0 mm | - | - | - |
| 1777612953 | 19.44° C | 86% | 983.1 hPa | 0 mm | - | - | - |
| 1777612701 | 19.44° C | 86% | 983.4 hPa | 0 mm | - | - | - |
| 1777612402 | 18.33° C | 91% | 990.6 hPa | 0 mm | - | - | - |
| 1777612103 | 19.44° C | 86% | 983.4 hPa | 0 mm | - | - | - |
| 1777611873 | 19.44° C | 86% | 982.8 hPa | 0 mm | - | - | - |
| 1777611800 | 19.44° C | 86% | 983 hPa | 0 mm | - | - | - |
| 1777611501 | 18.33° C | 91% | 990.6 hPa | 0 mm | - | - | - |
| 1777611201 | 19.44° C | 86% | 983.2 hPa | 0 mm | - | - | - |
| 1777610902 | 18.33° C | 91% | 990.6 hPa | 0 mm | - | - | - |
| 1777610792 | 19.44° C | 86% | 982.8 hPa | 0 mm | - | - | - |
| 1777610601 | 19.44° C | 86% | 982.7 hPa | 0 mm | - | - | - |
| 1777610301 | 19.44° C | 86% | 982.5 hPa | 0 mm | - | - | - |
* Rain latest hour (hover to see other rain measurements)
** Current wind speed in m/s (hover to see current wind gust speed)